createdAt,value
2018-08-16T01:24:01.338Z,99.80
2018-08-16T01:26:29.558Z,99.90
2018-08-16T01:28:57.762Z,99.90
2018-08-16T01:38:51.482Z,99.90
2018-08-16T01:41:19.713Z,99.90
2018-08-16T01:56:07.873Z,99.90
2018-08-16T01:58:36.161Z,99.90
2018-08-16T02:01:04.389Z,99.90
2018-08-16T02:03:32.650Z,99.90
2018-08-16T02:06:00.885Z,99.90
2018-08-16T02:08:29.125Z,99.90
2018-08-16T02:10:57.390Z,99.90
2018-08-16T02:15:53.590Z,99.90
2018-08-16T02:18:21.849Z,99.90
2018-08-16T02:20:50.081Z,99.90
2018-08-16T02:23:18.373Z,99.90
2018-08-16T02:25:46.625Z,99.90
2018-08-16T02:28:14.874Z,99.90
2018-08-16T02:30:43.095Z,99.90
2018-08-16T02:33:11.326Z,99.90
2018-08-16T02:35:39.558Z,99.90
2018-08-16T02:38:07.774Z,99.90
2018-08-16T02:40:36.033Z,99.90
2018-08-16T02:43:04.304Z,99.90
2018-08-16T02:45:32.526Z,99.90
2018-08-16T02:48:00.731Z,99.90
2018-08-16T02:50:28.961Z,99.90
2018-08-16T02:52:57.182Z,99.90
2018-08-16T02:55:25.410Z,99.90
2018-08-16T02:57:53.634Z,99.90
2018-08-16T03:00:21.866Z,99.90
2018-08-16T03:02:50.106Z,99.90
2018-08-16T03:05:18.362Z,99.90
2018-08-16T03:07:46.610Z,99.90
2018-08-16T03:10:14.834Z,99.90
2018-08-16T03:12:43.065Z,99.90
2018-08-16T03:15:11.418Z,99.90
2018-08-16T03:17:39.990Z,99.90
2018-08-16T03:20:08.390Z,99.90
2018-08-16T03:22:36.914Z,99.90
2018-08-16T03:25:05.206Z,99.90
2018-08-16T03:27:33.410Z,99.90
2018-08-16T03:30:01.645Z,99.90
2018-08-16T03:32:29.858Z,99.90
2018-08-16T04:48:59.873Z,99.90
2018-08-16T04:51:28.133Z,99.90
2018-08-16T04:53:57.114Z,99.90
2018-08-16T04:56:25.308Z,99.90
2018-08-16T04:58:53.507Z,99.90
2018-08-16T05:01:21.724Z,99.90
2018-08-16T05:03:49.949Z,99.90
2018-08-16T05:06:18.160Z,99.90
2018-08-16T05:08:46.405Z,99.90
2018-08-16T05:23:41.029Z,99.90
2018-08-16T05:26:09.241Z,99.90
2018-08-16T07:04:54.750Z,99.90
2018-08-16T07:07:22.915Z,99.90
2018-08-16T07:09:51.151Z,99.90
2018-08-16T07:12:19.507Z,99.90
2018-08-16T07:14:47.573Z,99.90
2018-08-16T08:28:52.228Z,99.90
2018-08-16T08:31:20.461Z,94.40
2018-08-16T08:48:48.098Z,93.80
2018-08-16T08:51:16.337Z,90.80
2018-08-16T08:54:56.161Z,90.40
2018-08-16T08:57:36.608Z,90.20
2018-08-16T09:00:06.193Z,88.30
2018-08-16T09:02:34.572Z,87.80
2018-08-16T09:05:02.885Z,87.80
2018-08-16T09:07:31.250Z,87.90
2018-08-16T09:11:13.494Z,86.70
2018-08-16T09:13:54.549Z,86.60
2018-08-16T09:16:25.589Z,86.90
2018-08-16T09:18:54.006Z,86.10
2018-08-16T09:21:22.218Z,85.90
2018-08-16T09:23:50.576Z,86.80
2018-08-16T09:26:24.477Z,86.30
2018-08-16T09:28:52.781Z,83.90
2018-08-16T09:31:32.396Z,83.50
2018-08-16T09:34:22.266Z,84.90
2018-08-16T09:36:50.676Z,84.00
2018-08-16T09:39:19.511Z,83.10
2018-08-16T09:41:47.727Z,82.20
2018-08-16T09:44:15.939Z,81.60
2018-08-16T09:47:01.599Z,82.10
2018-08-16T09:49:32.330Z,82.50
2018-08-16T09:52:00.746Z,83.20
2018-08-16T09:54:28.978Z,82.40
2018-08-16T09:56:58.598Z,82.60
2018-08-16T09:59:26.883Z,81.90
2018-08-16T10:01:55.128Z,82.80
2018-08-16T10:04:23.387Z,82.40
2018-08-16T10:06:51.654Z,81.30
2018-08-16T10:09:22.119Z,80.50
2018-08-16T10:11:50.484Z,81.20
2018-08-16T10:24:11.088Z,80.00
2018-08-16T10:26:39.367Z,75.60
2018-08-16T10:29:08.035Z,76.70
2018-08-16T10:31:36.268Z,78.10
2018-08-16T10:34:04.707Z,76.70
2018-08-16T10:36:32.971Z,76.00
2018-08-16T10:39:01.253Z,77.00
2018-08-16T10:41:29.933Z,75.50
2018-08-16T10:43:59.072Z,75.10
2018-08-16T10:46:27.417Z,73.90
2018-08-16T10:48:55.660Z,73.90
2018-08-16T10:51:23.925Z,72.60
2018-08-16T10:53:52.161Z,74.70
2018-08-16T10:56:20.377Z,75.20
2018-08-16T10:58:49.337Z,74.10
2018-08-16T11:01:17.680Z,75.00
2018-08-16T11:03:50.750Z,75.00
2018-08-16T11:06:18.993Z,77.10
2018-08-16T11:08:47.209Z,74.60
2018-08-16T11:11:15.453Z,73.40
2018-08-16T11:13:43.685Z,71.60
2018-08-16T11:16:12.168Z,70.30
2018-08-16T11:18:40.672Z,70.30
2018-08-16T11:21:08.889Z,69.50
2018-08-16T11:23:39.069Z,68.60
2018-08-16T11:26:07.409Z,68.60
2018-08-16T11:28:35.681Z,67.60
2018-08-16T11:31:04.018Z,68.70
2018-08-16T11:33:32.366Z,67.60
2018-08-16T11:36:00.583Z,69.10
2018-08-16T11:38:28.864Z,68.40
2018-08-16T11:40:57.083Z,69.00
2018-08-16T11:43:25.351Z,68.70
2018-08-16T11:45:53.739Z,67.80
2018-08-16T11:48:22.127Z,67.70
2018-08-16T11:50:50.408Z,67.10
2018-08-16T11:53:18.615Z,66.20
2018-08-16T11:55:46.831Z,67.10
2018-08-16T11:58:15.087Z,67.20
2018-08-16T12:00:43.296Z,67.60
2018-08-16T12:03:11.588Z,67.60
2018-08-16T12:05:39.803Z,66.80
2018-08-16T12:08:08.063Z,66.00
2018-08-16T12:10:36.591Z,65.20
2018-08-16T12:13:04.824Z,65.40
2018-08-16T12:15:33.131Z,63.80
2018-08-16T12:18:01.392Z,65.60
2018-08-16T12:20:29.644Z,67.20
2018-08-16T12:22:57.931Z,68.20
2018-08-16T12:25:26.187Z,67.10
2018-08-16T12:27:54.439Z,64.90
2018-08-16T12:30:22.664Z,66.20
2018-08-16T12:32:50.921Z,66.50
2018-08-16T12:35:19.233Z,66.40
2018-08-16T12:37:47.487Z,67.10
2018-08-16T12:40:15.692Z,67.50
2018-08-16T12:42:43.920Z,68.40
2018-08-16T12:45:12.184Z,67.30
2018-08-16T12:47:40.497Z,66.70
2018-08-16T12:50:08.993Z,64.80
2018-08-16T12:52:37.328Z,64.30
2018-08-16T12:55:05.591Z,63.30
2018-08-16T12:57:34.024Z,64.00
2018-08-16T13:00:02.236Z,63.20
2018-08-16T13:02:30.800Z,62.70
2018-08-16T13:04:59.948Z,62.20
2018-08-16T13:07:28.248Z,63.40
2018-08-16T13:09:56.488Z,62.40
2018-08-16T13:12:24.765Z,63.60
2018-08-16T13:14:52.999Z,61.80
2018-08-16T13:17:21.210Z,62.20
2018-08-16T13:19:49.500Z,61.80
2018-08-16T13:22:17.707Z,63.00
2018-08-16T13:24:45.929Z,63.20
2018-08-16T13:27:14.256Z,62.30
2018-08-16T13:29:42.408Z,62.70
2018-08-16T13:32:10.637Z,62.60
2018-08-16T13:34:38.874Z,62.50
2018-08-16T13:37:07.284Z,61.80
2018-08-16T13:39:36.741Z,61.70
2018-08-16T13:42:04.993Z,62.10
2018-08-16T13:44:33.221Z,61.60
2018-08-16T13:47:01.439Z,61.20
2018-08-16T13:49:29.714Z,60.40
2018-08-16T13:51:57.993Z,61.30
2018-08-16T13:54:26.217Z,61.30
2018-08-16T13:56:54.462Z,61.50
2018-08-16T13:59:22.765Z,61.20
2018-08-16T14:01:51.126Z,61.50
2018-08-16T14:04:19.348Z,60.40
2018-08-16T14:06:47.582Z,60.10
2018-08-16T14:09:16.042Z,61.30
2018-08-16T14:11:44.285Z,60.00
2018-08-16T14:14:12.485Z,59.80
2018-08-16T14:16:40.740Z,59.40
2018-08-16T14:19:09.017Z,60.40
2018-08-16T14:21:37.250Z,60.70
2018-08-16T14:24:05.798Z,62.00
2018-08-16T14:26:34.059Z,60.80
2018-08-16T14:29:02.281Z,60.60
2018-08-16T14:31:30.633Z,60.20
2018-08-16T14:33:58.861Z,60.30
2018-08-16T14:36:27.182Z,60.70
2018-08-16T14:38:55.506Z,59.90
2018-08-16T14:41:23.714Z,60.80
2018-08-16T14:43:51.939Z,59.80
2018-08-16T14:46:20.177Z,59.70
2018-08-16T14:48:48.438Z,60.00
2018-08-16T14:51:16.740Z,60.40
2018-08-16T14:53:44.998Z,59.50
2018-08-16T14:56:13.379Z,59.10
2018-08-16T14:58:41.675Z,59.90
2018-08-16T15:01:09.894Z,58.90
2018-08-16T15:03:38.198Z,58.70
2018-08-16T15:06:06.462Z,59.20
2018-08-16T15:08:34.754Z,59.40
2018-08-16T15:11:02.990Z,59.70
2018-08-16T15:13:31.267Z,59.90
2018-08-16T15:15:59.522Z,60.10
2018-08-16T15:18:27.730Z,60.40
2018-08-16T15:20:55.946Z,60.20
2018-08-16T15:23:24.143Z,61.20
2018-08-16T15:25:52.426Z,60.10
2018-08-16T15:28:21.154Z,60.00
2018-08-16T15:30:49.547Z,60.30
2018-08-16T15:33:18.844Z,60.20
2018-08-16T15:35:47.122Z,60.70
2018-08-16T15:38:15.367Z,61.70
2018-08-16T15:40:43.662Z,62.50
2018-08-16T15:43:12.346Z,63.10
2018-08-16T15:45:40.623Z,63.00
2018-08-16T15:48:14.747Z,62.80
2018-08-16T15:50:43.999Z,63.40
2018-08-16T15:53:12.211Z,62.80
2018-08-16T15:55:40.471Z,62.80
2018-08-16T15:58:10.562Z,63.40
2018-08-16T16:03:13.371Z,63.40
2018-08-16T16:05:41.706Z,63.90
2018-08-16T16:08:09.839Z,63.90
2018-08-16T16:10:38.112Z,63.40
2018-08-16T16:13:06.331Z,64.70
2018-08-16T16:15:34.547Z,64.30
2018-08-16T16:18:02.863Z,65.00
2018-08-16T16:20:31.236Z,65.60
2018-08-16T16:22:59.919Z,66.50
2018-08-16T16:25:28.380Z,65.90
2018-08-16T16:27:56.776Z,66.50
2018-08-16T16:30:25.062Z,67.30
2018-08-16T16:32:53.352Z,66.30
2018-08-16T16:35:21.628Z,66.80
2018-08-16T16:37:49.960Z,67.00
2018-08-16T16:40:18.260Z,66.80
2018-08-16T16:42:46.667Z,67.70
2018-08-16T16:45:15.456Z,67.40
2018-08-16T16:47:43.688Z,68.20
2018-08-16T16:50:12.076Z,68.70
2018-08-16T16:52:40.324Z,69.50
2018-08-16T16:55:08.620Z,69.00
2018-08-16T16:57:37.315Z,69.90
2018-08-16T17:00:07.744Z,71.70
2018-08-16T17:02:36.756Z,71.20
2018-08-16T17:05:05.189Z,71.40
2018-08-16T17:07:34.412Z,71.80
2018-08-16T18:41:23.810Z,71.50
2018-08-16T18:43:52.523Z,79.30
2018-08-16T18:46:20.839Z,79.20
2018-08-16T18:48:49.042Z,79.80
2018-08-16T18:51:17.312Z,80.10
2018-08-16T18:53:52.421Z,80.40
2018-08-16T18:56:20.691Z,80.70
2018-08-16T18:58:48.943Z,80.60
2018-08-16T19:01:17.247Z,80.60
2018-08-16T19:03:45.606Z,80.80
2018-08-16T19:06:13.856Z,81.20
2018-08-16T19:08:42.859Z,81.50
2018-08-16T19:11:11.328Z,81.80
2018-08-16T19:13:39.536Z,82.40
2018-08-16T19:16:09.394Z,82.60
2018-08-16T19:18:37.788Z,83.10
2018-08-16T19:21:06.427Z,83.30
2018-08-16T19:23:34.796Z,83.60
2018-08-16T19:26:03.135Z,83.70
2018-08-16T19:28:31.879Z,83.30
2018-08-16T19:31:01.088Z,83.30
2018-08-16T19:33:29.620Z,83.40
2018-08-16T19:35:57.915Z,83.40
2018-08-16T19:38:27.260Z,83.80
2018-08-16T19:40:55.523Z,84.40
2018-08-16T19:43:23.820Z,85.90
2018-08-16T19:45:52.040Z,86.20
2018-08-16T19:48:20.401Z,87.10
2018-08-16T19:50:49.030Z,85.90
2018-08-16T19:53:17.739Z,86.00
2018-08-16T19:55:45.939Z,85.90
2018-08-16T19:58:14.240Z,86.30
2018-08-16T20:00:42.480Z,86.60
2018-08-16T20:03:10.787Z,86.90
2018-08-16T20:05:39.460Z,87.40
2018-08-16T20:08:07.711Z,87.70
2018-08-16T20:10:36.615Z,88.40
2018-08-16T20:13:05.295Z,88.20
2018-08-16T20:15:33.527Z,88.60
2018-08-16T20:18:02.614Z,88.60
2018-08-16T20:20:30.848Z,89.00
2018-08-16T20:22:59.096Z,89.60
2018-08-16T20:25:27.372Z,90.00
2018-08-16T20:27:55.576Z,90.30
2018-08-16T20:30:23.922Z,90.60
2018-08-16T20:32:52.072Z,90.90
2018-08-16T20:35:20.300Z,90.80
2018-08-16T20:37:48.537Z,91.10
2018-08-16T20:40:16.764Z,91.30
2018-08-16T20:42:44.968Z,91.50
2018-08-16T20:45:13.396Z,91.70
2018-08-16T20:47:41.625Z,91.80
2018-08-16T20:50:09.862Z,92.00
2018-08-16T20:52:38.142Z,91.90
2018-08-16T20:55:06.544Z,92.10
2018-08-16T20:57:34.777Z,92.20
2018-08-16T21:00:03.028Z,92.20
2018-08-16T21:02:31.256Z,92.30
2018-08-16T21:04:59.489Z,92.30
2018-08-16T21:07:27.734Z,92.50
2018-08-16T21:09:55.982Z,92.50
2018-08-16T21:12:24.237Z,92.60
2018-08-16T23:13:27.225Z,92.80
2018-08-16T23:15:55.438Z,96.90
2018-08-16T23:18:23.749Z,96.90
2018-08-16T23:20:52.025Z,96.70
2018-08-16T23:23:20.305Z,96.80
2018-08-16T23:25:48.601Z,96.90
2018-08-16T23:28:16.986Z,96.90
2018-08-16T23:30:45.233Z,96.90
2018-08-16T23:33:13.478Z,97.10
2018-08-16T23:35:41.705Z,97.20
2018-08-16T23:38:09.913Z,97.20
2018-08-16T23:40:38.159Z,97.10
2018-08-16T23:43:07.285Z,97.10
2018-08-16T23:45:35.474Z,97.10
2018-08-16T23:48:15.051Z,97.20
2018-08-16T23:50:43.265Z,97.20
2018-08-16T23:53:11.535Z,97.30
